sensor_id;sensor_type;location;lat;lon;timestamp;temperature;humidity
71237;DHT22;58984;51.960;5.582;2022-08-03T00:01:16;28.10;50.20
71237;DHT22;58984;51.960;5.582;2022-08-03T00:03:41;28.10;50.30
71237;DHT22;58984;51.960;5.582;2022-08-03T00:06:07;28.00;50.20
71237;DHT22;58984;51.960;5.582;2022-08-03T00:08:32;28.00;50.30
71237;DHT22;58984;51.960;5.582;2022-08-03T00:10:58;28.00;50.30
71237;DHT22;58984;51.960;5.582;2022-08-03T00:13:24;28.00;50.30
71237;DHT22;58984;51.960;5.582;2022-08-03T00:15:50;28.00;50.40
71237;DHT22;58984;51.960;5.582;2022-08-03T00:18:16;28.00;50.40
71237;DHT22;58984;51.960;5.582;2022-08-03T00:20:41;28.00;50.50
71237;DHT22;58984;51.960;5.582;2022-08-03T00:23:07;28.00;50.50
71237;DHT22;58984;51.960;5.582;2022-08-03T00:25:34;27.90;50.50
71237;DHT22;58984;51.960;5.582;2022-08-03T00:28:01;27.90;50.50
71237;DHT22;58984;51.960;5.582;2022-08-03T00:30:27;27.90;50.50
71237;DHT22;58984;51.960;5.582;2022-08-03T00:32:53;27.90;50.60
71237;DHT22;58984;51.960;5.582;2022-08-03T00:35:18;27.90;50.60
71237;DHT22;58984;51.960;5.582;2022-08-03T00:37:44;27.90;50.60
71237;DHT22;58984;51.960;5.582;2022-08-03T00:40:11;27.90;50.70
71237;DHT22;58984;51.960;5.582;2022-08-03T00:45:16;27.80;50.90
71237;DHT22;58984;51.960;5.582;2022-08-03T00:47:42;27.80;50.80
71237;DHT22;58984;51.960;5.582;2022-08-03T00:50:08;27.80;50.70
71237;DHT22;58984;51.960;5.582;2022-08-03T00:52:34;27.80;50.90
71237;DHT22;58984;51.960;5.582;2022-08-03T00:55:00;27.70;50.80
71237;DHT22;58984;51.960;5.582;2022-08-03T00:57:26;27.80;50.90
71237;DHT22;58984;51.960;5.582;2022-08-03T00:59:53;27.80;50.90
71237;DHT22;58984;51.960;5.582;2022-08-03T01:02:18;27.80;50.90
71237;DHT22;58984;51.960;5.582;2022-08-03T01:04:44;27.70;51.00
71237;DHT22;58984;51.960;5.582;2022-08-03T01:10:22;27.60;51.00
71237;DHT22;58984;51.960;5.582;2022-08-03T01:15:47;27.70;50.90
71237;DHT22;58984;51.960;5.582;2022-08-03T01:18:26;27.60;51.00
71237;DHT22;58984;51.960;5.582;2022-08-03T01:20:56;27.50;50.90
71237;DHT22;58984;51.960;5.582;2022-08-03T01:23:46;27.60;51.00
71237;DHT22;58984;51.960;5.582;2022-08-03T01:31:47;27.50;51.10
71237;DHT22;58984;51.960;5.582;2022-08-03T01:34:19;27.60;51.00
71237;DHT22;58984;51.960;5.582;2022-08-03T01:36:51;27.50;51.00
71237;DHT22;58984;51.960;5.582;2022-08-03T01:39:18;27.50;51.10
71237;DHT22;58984;51.960;5.582;2022-08-03T01:41:52;27.50;51.10
71237;DHT22;58984;51.960;5.582;2022-08-03T01:44:23;27.50;51.10
71237;DHT22;58984;51.960;5.582;2022-08-03T01:46:48;27.50;51.10
71237;DHT22;58984;51.960;5.582;2022-08-03T01:49:16;27.50;51.20
71237;DHT22;58984;51.960;5.582;2022-08-03T01:51:44;27.40;51.10
71237;DHT22;58984;51.960;5.582;2022-08-03T01:54:12;27.40;51.20
71237;DHT22;58984;51.960;5.582;2022-08-03T01:56:39;27.50;51.30
71237;DHT22;58984;51.960;5.582;2022-08-03T01:59:06;27.40;51.20
71237;DHT22;58984;51.960;5.582;2022-08-03T02:01:34;27.40;51.20
71237;DHT22;58984;51.960;5.582;2022-08-03T02:04:01;27.40;51.30
71237;DHT22;58984;51.960;5.582;2022-08-03T02:06:30;27.40;51.30
71237;DHT22;58984;51.960;5.582;2022-08-03T02:08:57;27.40;51.30
71237;DHT22;58984;51.960;5.582;2022-08-03T02:11:23;27.30;51.30
71237;DHT22;58984;51.960;5.582;2022-08-03T02:13:50;27.30;51.20
71237;DHT22;58984;51.960;5.582;2022-08-03T02:16:17;27.40;51.30
71237;DHT22;58984;51.960;5.582;2022-08-03T02:18:44;27.30;51.30
71237;DHT22;58984;51.960;5.582;2022-08-03T02:21:11;27.30;51.30
71237;DHT22;58984;51.960;5.582;2022-08-03T02:23:37;27.30;51.30
71237;DHT22;58984;51.960;5.582;2022-08-03T02:26:07;27.30;51.30
71237;DHT22;58984;51.960;5.582;2022-08-03T02:28:39;27.30;51.50
71237;DHT22;58984;51.960;5.582;2022-08-03T02:31:10;27.20;51.40
71237;DHT22;58984;51.960;5.582;2022-08-03T02:33:40;27.30;51.40
71237;DHT22;58984;51.960;5.582;2022-08-03T02:36:07;27.30;51.40
71237;DHT22;58984;51.960;5.582;2022-08-03T02:38:38;27.20;51.40
71237;DHT22;58984;51.960;5.582;2022-08-03T02:41:08;27.30;51.50
71237;DHT22;58984;51.960;5.582;2022-08-03T02:43:39;27.20;51.40
71237;DHT22;58984;51.960;5.582;2022-08-03T02:46:06;27.20;51.50
71237;DHT22;58984;51.960;5.582;2022-08-03T02:48:35;27.20;51.50
71237;DHT22;58984;51.960;5.582;2022-08-03T02:51:02;27.20;51.50
71237;DHT22;58984;51.960;5.582;2022-08-03T02:53:28;27.10;51.40
71237;DHT22;58984;51.960;5.582;2022-08-03T02:55:56;27.10;52.10
71237;DHT22;58984;51.960;5.582;2022-08-03T02:58:23;27.10;51.50
71237;DHT22;58984;51.960;5.582;2022-08-03T03:00:51;27.10;51.60
71237;DHT22;58984;51.960;5.582;2022-08-03T03:03:17;27.20;51.70
71237;DHT22;58984;51.960;5.582;2022-08-03T03:05:44;27.10;51.60
71237;DHT22;58984;51.960;5.582;2022-08-03T03:08:12;27.10;51.60
71237;DHT22;58984;51.960;5.582;2022-08-03T03:10:39;27.10;51.70
71237;DHT22;58984;51.960;5.582;2022-08-03T03:13:06;27.10;51.60
71237;DHT22;58984;51.960;5.582;2022-08-03T03:15:34;27.10;51.70
71237;DHT22;58984;51.960;5.582;2022-08-03T03:18:02;27.00;51.70
71237;DHT22;58984;51.960;5.582;2022-08-03T03:20:28;27.00;51.60
71237;DHT22;58984;51.960;5.582;2022-08-03T03:22:55;27.00;51.70
71237;DHT22;58984;51.960;5.582;2022-08-03T03:25:22;27.00;51.60
71237;DHT22;58984;51.960;5.582;2022-08-03T03:27:49;27.00;51.70
71237;DHT22;58984;51.960;5.582;2022-08-03T03:30:15;27.00;51.70
71237;DHT22;58984;51.960;5.582;2022-08-03T03:32:40;27.00;51.80
71237;DHT22;58984;51.960;5.582;2022-08-03T03:35:06;27.00;51.90
71237;DHT22;58984;51.960;5.582;2022-08-03T03:37:33;27.00;51.80
71237;DHT22;58984;51.960;5.582;2022-08-03T03:39:58;27.00;51.80
71237;DHT22;58984;51.960;5.582;2022-08-03T03:42:24;27.00;51.80
71237;DHT22;58984;51.960;5.582;2022-08-03T03:44:50;27.00;51.80
71237;DHT22;58984;51.960;5.582;2022-08-03T03:47:16;26.90;51.80
71237;DHT22;58984;51.960;5.582;2022-08-03T03:49:43;26.90;51.80
71237;DHT22;58984;51.960;5.582;2022-08-03T03:52:10;26.90;51.90
71237;DHT22;58984;51.960;5.582;2022-08-03T03:54:42;26.90;51.80
71237;DHT22;58984;51.960;5.582;2022-08-03T03:57:09;26.80;51.90
71237;DHT22;58984;51.960;5.582;2022-08-03T03:59:42;26.90;52.00
71237;DHT22;58984;51.960;5.582;2022-08-03T04:02:09;26.80;52.00
71237;DHT22;58984;51.960;5.582;2022-08-03T04:04:35;26.90;52.10
71237;DHT22;58984;51.960;5.582;2022-08-03T04:07:22;26.90;52.10
71237;DHT22;58984;51.960;5.582;2022-08-03T04:10:13;26.90;52.10
71237;DHT22;58984;51.960;5.582;2022-08-03T04:12:59;26.80;52.00
71237;DHT22;58984;51.960;5.582;2022-08-03T04:15:27;26.80;52.00
71237;DHT22;58984;51.960;5.582;2022-08-03T04:17:54;26.80;52.20
71237;DHT22;58984;51.960;5.582;2022-08-03T04:20:22;26.80;52.20
71237;DHT22;58984;51.960;5.582;2022-08-03T04:22:49;26.80;52.20
71237;DHT22;58984;51.960;5.582;2022-08-03T04:25:17;26.80;52.20
71237;DHT22;58984;51.960;5.582;2022-08-03T04:27:45;26.80;52.20
71237;DHT22;58984;51.960;5.582;2022-08-03T04:30:13;26.80;52.30
71237;DHT22;58984;51.960;5.582;2022-08-03T04:32:39;26.70;52.30
71237;DHT22;58984;51.960;5.582;2022-08-03T04:35:06;26.80;52.20
71237;DHT22;58984;51.960;5.582;2022-08-03T04:37:41;26.70;52.20
71237;DHT22;58984;51.960;5.582;2022-08-03T04:40:34;26.60;52.20
71237;DHT22;58984;51.960;5.582;2022-08-03T04:43:01;26.60;52.20
71237;DHT22;58984;51.960;5.582;2022-08-03T04:45:27;26.70;52.10
71237;DHT22;58984;51.960;5.582;2022-08-03T04:47:53;26.70;52.20
71237;DHT22;58984;51.960;5.582;2022-08-03T04:50:20;26.70;52.30
71237;DHT22;58984;51.960;5.582;2022-08-03T04:52:46;26.70;52.30
71237;DHT22;58984;51.960;5.582;2022-08-03T04:55:30;26.70;52.30
71237;DHT22;58984;51.960;5.582;2022-08-03T04:57:57;26.50;52.30
71237;DHT22;58984;51.960;5.582;2022-08-03T05:00:24;26.70;52.30
71237;DHT22;58984;51.960;5.582;2022-08-03T05:02:49;26.60;52.30
71237;DHT22;58984;51.960;5.582;2022-08-03T05:05:16;26.60;52.20
71237;DHT22;58984;51.960;5.582;2022-08-03T05:07:42;26.60;52.30
71237;DHT22;58984;51.960;5.582;2022-08-03T05:10:09;26.60;52.40
71237;DHT22;58984;51.960;5.582;2022-08-03T05:12:35;26.60;52.40
71237;DHT22;58984;51.960;5.582;2022-08-03T05:15:01;26.60;52.30
71237;DHT22;58984;51.960;5.582;2022-08-03T05:17:27;26.60;52.30
71237;DHT22;58984;51.960;5.582;2022-08-03T05:19:53;26.60;52.30
71237;DHT22;58984;51.960;5.582;2022-08-03T05:22:21;26.60;52.40
71237;DHT22;58984;51.960;5.582;2022-08-03T05:24:46;26.50;52.30
71237;DHT22;58984;51.960;5.582;2022-08-03T05:27:12;26.60;52.40
71237;DHT22;58984;51.960;5.582;2022-08-03T05:29:44;26.60;52.40
71237;DHT22;58984;51.960;5.582;2022-08-03T05:32:09;26.60;52.50
71237;DHT22;58984;51.960;5.582;2022-08-03T05:34:35;26.50;52.30
71237;DHT22;58984;51.960;5.582;2022-08-03T05:37:00;26.50;52.30
71237;DHT22;58984;51.960;5.582;2022-08-03T05:39:26;26.60;52.40
71237;DHT22;58984;51.960;5.582;2022-08-03T05:41:52;26.50;52.40
71237;DHT22;58984;51.960;5.582;2022-08-03T05:44:17;26.60;52.50
71237;DHT22;58984;51.960;5.582;2022-08-03T05:46:43;26.50;52.40
71237;DHT22;58984;51.960;5.582;2022-08-03T05:49:08;26.50;52.50
71237;DHT22;58984;51.960;5.582;2022-08-03T05:51:34;26.60;52.50
71237;DHT22;58984;51.960;5.582;2022-08-03T05:53:59;26.50;52.50
71237;DHT22;58984;51.960;5.582;2022-08-03T05:56:25;26.50;52.40
71237;DHT22;58984;51.960;5.582;2022-08-03T05:58:51;26.50;52.50
71237;DHT22;58984;51.960;5.582;2022-08-03T06:01:18;26.50;52.50
71237;DHT22;58984;51.960;5.582;2022-08-03T06:03:46;26.50;52.50
71237;DHT22;58984;51.960;5.582;2022-08-03T06:06:12;26.50;52.40
71237;DHT22;58984;51.960;5.582;2022-08-03T06:08:38;26.50;52.50
71237;DHT22;58984;51.960;5.582;2022-08-03T06:11:04;26.50;52.60
71237;DHT22;58984;51.960;5.582;2022-08-03T06:13:30;26.50;52.60
71237;DHT22;58984;51.960;5.582;2022-08-03T06:15:55;26.50;52.60
71237;DHT22;58984;51.960;5.582;2022-08-03T06:18:21;26.50;52.60
71237;DHT22;58984;51.960;5.582;2022-08-03T06:20:47;26.50;52.50
71237;DHT22;58984;51.960;5.582;2022-08-03T06:23:13;26.50;52.60
71237;DHT22;58984;51.960;5.582;2022-08-03T06:25:38;26.50;52.60
71237;DHT22;58984;51.960;5.582;2022-08-03T06:28:04;26.50;52.60
71237;DHT22;58984;51.960;5.582;2022-08-03T06:30:29;26.50;52.60
71237;DHT22;58984;51.960;5.582;2022-08-03T06:32:55;26.50;52.60
71237;DHT22;58984;51.960;5.582;2022-08-03T06:35:20;26.50;52.60
71237;DHT22;58984;51.960;5.582;2022-08-03T06:37:50;26.50;52.60
71237;DHT22;58984;51.960;5.582;2022-08-03T06:40:21;26.50;52.60
71237;DHT22;58984;51.960;5.582;2022-08-03T06:42:54;26.50;52.60
71237;DHT22;58984;51.960;5.582;2022-08-03T06:45:20;26.50;52.60
71237;DHT22;58984;51.960;5.582;2022-08-03T06:47:45;26.50;52.60
71237;DHT22;58984;51.960;5.582;2022-08-03T06:50:11;26.50;52.60
71237;DHT22;58984;51.960;5.582;2022-08-03T06:52:37;26.50;52.60
71237;DHT22;58984;51.960;5.582;2022-08-03T06:55:03;26.60;52.70
71237;DHT22;58984;51.960;5.582;2022-08-03T06:57:29;26.50;52.60
71237;DHT22;58984;51.960;5.582;2022-08-03T06:59:54;26.50;52.60
71237;DHT22;58984;51.960;5.582;2022-08-03T07:02:26;26.60;52.70
71237;DHT22;58984;51.960;5.582;2022-08-03T07:04:52;26.50;52.50
71237;DHT22;58984;51.960;5.582;2022-08-03T07:07:17;26.60;52.50
71237;DHT22;58984;51.960;5.582;2022-08-03T07:09:43;26.50;52.40
71237;DHT22;58984;51.960;5.582;2022-08-03T07:12:09;26.50;52.40
71237;DHT22;58984;51.960;5.582;2022-08-03T07:14:34;26.50;52.30
71237;DHT22;58984;51.960;5.582;2022-08-03T07:17:00;26.60;52.40
71237;DHT22;58984;51.960;5.582;2022-08-03T07:19:25;26.60;52.50
71237;DHT22;58984;51.960;5.582;2022-08-03T07:21:51;26.60;52.40
71237;DHT22;58984;51.960;5.582;2022-08-03T07:24:16;26.70;52.50
71237;DHT22;58984;51.960;5.582;2022-08-03T07:26:42;26.60;52.50
71237;DHT22;58984;51.960;5.582;2022-08-03T07:29:08;26.70;52.50
71237;DHT22;58984;51.960;5.582;2022-08-03T07:31:33;26.70;52.50
71237;DHT22;58984;51.960;5.582;2022-08-03T07:33:59;26.70;52.50
71237;DHT22;58984;51.960;5.582;2022-08-03T07:36:24;26.70;52.30
71237;DHT22;58984;51.960;5.582;2022-08-03T07:38:51;26.70;52.30
71237;DHT22;58984;51.960;5.582;2022-08-03T07:41:16;26.70;52.20
71237;DHT22;58984;51.960;5.582;2022-08-03T07:43:42;26.80;52.30
71237;DHT22;58984;51.960;5.582;2022-08-03T07:46:07;26.80;52.30
71237;DHT22;58984;51.960;5.582;2022-08-03T07:48:33;26.80;52.40
71237;DHT22;58984;51.960;5.582;2022-08-03T07:50:58;26.80;52.30
71237;DHT22;58984;51.960;5.582;2022-08-03T07:53:24;26.80;52.40
71237;DHT22;58984;51.960;5.582;2022-08-03T07:55:49;26.90;52.40
71237;DHT22;58984;51.960;5.582;2022-08-03T07:58:15;26.80;52.40
71237;DHT22;58984;51.960;5.582;2022-08-03T08:00:43;26.90;52.30
71237;DHT22;58984;51.960;5.582;2022-08-03T08:03:09;26.90;52.40
71237;DHT22;58984;51.960;5.582;2022-08-03T08:05:35;26.90;52.40
71237;DHT22;58984;51.960;5.582;2022-08-03T08:08:02;26.90;52.40
71237;DHT22;58984;51.960;5.582;2022-08-03T08:10:28;27.00;52.40
71237;DHT22;58984;51.960;5.582;2022-08-03T08:12:54;27.00;52.50
71237;DHT22;58984;51.960;5.582;2022-08-03T08:15:20;27.00;52.50
71237;DHT22;58984;51.960;5.582;2022-08-03T08:17:50;27.10;52.60
71237;DHT22;58984;51.960;5.582;2022-08-03T08:20:18;27.10;52.60
71237;DHT22;58984;51.960;5.582;2022-08-03T08:22:44;27.10;52.50
71237;DHT22;58984;51.960;5.582;2022-08-03T08:25:10;27.20;52.60
71237;DHT22;58984;51.960;5.582;2022-08-03T08:27:46;27.20;52.60
71237;DHT22;58984;51.960;5.582;2022-08-03T08:30:14;27.10;52.70
71237;DHT22;58984;51.960;5.582;2022-08-03T08:32:40;27.30;52.70
71237;DHT22;58984;51.960;5.582;2022-08-03T08:35:07;27.30;52.80
71237;DHT22;58984;51.960;5.582;2022-08-03T08:37:33;27.30;52.80
71237;DHT22;58984;51.960;5.582;2022-08-03T08:39:59;27.40;52.90
71237;DHT22;58984;51.960;5.582;2022-08-03T08:42:25;27.40;52.90
71237;DHT22;58984;51.960;5.582;2022-08-03T08:44:51;27.50;52.90
71237;DHT22;58984;51.960;5.582;2022-08-03T08:47:23;27.50;52.90
71237;DHT22;58984;51.960;5.582;2022-08-03T08:49:52;27.50;52.90
71237;DHT22;58984;51.960;5.582;2022-08-03T08:52:22;27.60;52.90
71237;DHT22;58984;51.960;5.582;2022-08-03T08:54:48;27.60;52.80
71237;DHT22;58984;51.960;5.582;2022-08-03T08:57:15;27.70;53.60
71237;DHT22;58984;51.960;5.582;2022-08-03T08:59:42;27.70;52.90
71237;DHT22;58984;51.960;5.582;2022-08-03T09:02:08;27.80;52.90
71237;DHT22;58984;51.960;5.582;2022-08-03T09:04:35;27.80;53.00
71237;DHT22;58984;51.960;5.582;2022-08-03T09:07:03;27.90;53.10
71237;DHT22;58984;51.960;5.582;2022-08-03T09:09:29;27.90;52.80
71237;DHT22;58984;51.960;5.582;2022-08-03T09:11:55;28.00;53.00
71237;DHT22;58984;51.960;5.582;2022-08-03T09:14:21;28.10;53.00
71237;DHT22;58984;51.960;5.582;2022-08-03T09:16:59;28.10;53.00
71237;DHT22;58984;51.960;5.582;2022-08-03T09:19:26;28.00;53.10
71237;DHT22;58984;51.960;5.582;2022-08-03T09:24:53;28.10;53.10
71237;DHT22;58984;51.960;5.582;2022-08-03T09:27:19;28.30;52.90
71237;DHT22;58984;51.960;5.582;2022-08-03T09:29:53;28.40;52.90
71237;DHT22;58984;51.960;5.582;2022-08-03T09:32:20;28.40;53.10
71237;DHT22;58984;51.960;5.582;2022-08-03T09:34:50;28.50;53.60
71237;DHT22;58984;51.960;5.582;2022-08-03T09:37:18;28.50;52.90
71237;DHT22;58984;51.960;5.582;2022-08-03T09:39:45;28.60;53.00
71237;DHT22;58984;51.960;5.582;2022-08-03T09:42:16;28.70;53.10
71237;DHT22;58984;51.960;5.582;2022-08-03T09:44:44;28.70;53.00
71237;DHT22;58984;51.960;5.582;2022-08-03T09:47:11;28.80;53.10
71237;DHT22;58984;51.960;5.582;2022-08-03T09:49:38;28.90;53.10
71237;DHT22;58984;51.960;5.582;2022-08-03T09:52:15;28.90;53.10
71237;DHT22;58984;51.960;5.582;2022-08-03T09:54:42;28.90;53.20
71237;DHT22;58984;51.960;5.582;2022-08-03T09:57:23;29.10;53.10
71237;DHT22;58984;51.960;5.582;2022-08-03T09:59:50;29.00;53.10
71237;DHT22;58984;51.960;5.582;2022-08-03T10:02:24;29.20;53.00
71237;DHT22;58984;51.960;5.582;2022-08-03T10:04:50;29.20;53.00
71237;DHT22;58984;51.960;5.582;2022-08-03T10:07:18;29.30;52.90
71237;DHT22;58984;51.960;5.582;2022-08-03T10:09:57;29.40;53.10
71237;DHT22;58984;51.960;5.582;2022-08-03T10:12:23;29.30;53.00
71237;DHT22;58984;51.960;5.582;2022-08-03T10:14:49;29.50;52.90
71237;DHT22;58984;51.960;5.582;2022-08-03T10:17:15;29.50;53.00
71237;DHT22;58984;51.960;5.582;2022-08-03T10:19:42;29.60;52.90
71237;DHT22;58984;51.960;5.582;2022-08-03T10:22:34;29.70;52.90
71237;DHT22;58984;51.960;5.582;2022-08-03T10:25:08;29.60;53.70
71237;DHT22;58984;51.960;5.582;2022-08-03T10:27:39;29.70;52.90
71237;DHT22;58984;51.960;5.582;2022-08-03T10:30:08;29.80;52.80
71237;DHT22;58984;51.960;5.582;2022-08-03T10:32:40;29.90;52.90
71237;DHT22;58984;51.960;5.582;2022-08-03T10:35:10;29.90;52.90
71237;DHT22;58984;51.960;5.582;2022-08-03T10:37:53;30.10;52.80
71237;DHT22;58984;51.960;5.582;2022-08-03T10:40:21;30.00;52.80
71237;DHT22;58984;51.960;5.582;2022-08-03T10:42:49;30.20;52.60
71237;DHT22;58984;51.960;5.582;2022-08-03T10:45:20;30.20;52.60
71237;DHT22;58984;51.960;5.582;2022-08-03T10:47:48;30.20;52.60
71237;DHT22;58984;51.960;5.582;2022-08-03T10:50:16;30.30;52.60
71237;DHT22;58984;51.960;5.582;2022-08-03T10:58:13;30.40;52.70
71237;DHT22;58984;51.960;5.582;2022-08-03T11:00:49;30.50;52.40
71237;DHT22;58984;51.960;5.582;2022-08-03T11:03:15;30.40;52.50
71237;DHT22;58984;51.960;5.582;2022-08-03T11:05:48;30.60;52.40
71237;DHT22;58984;51.960;5.582;2022-08-03T11:10:47;30.60;52.30
71237;DHT22;58984;51.960;5.582;2022-08-03T11:13:15;30.70;52.30
71237;DHT22;58984;51.960;5.582;2022-08-03T11:15:43;30.70;52.30
71237;DHT22;58984;51.960;5.582;2022-08-03T11:18:10;30.80;52.90
71237;DHT22;58984;51.960;5.582;2022-08-03T11:20:53;30.90;52.20
71237;DHT22;58984;51.960;5.582;2022-08-03T11:23:44;30.80;52.10
71237;DHT22;58984;51.960;5.582;2022-08-03T11:26:11;30.80;52.00
71237;DHT22;58984;51.960;5.582;2022-08-03T11:28:37;31.10;51.90
71237;DHT22;58984;51.960;5.582;2022-08-03T11:34:09;31.00;52.00
71237;DHT22;58984;51.960;5.582;2022-08-03T11:39:43;31.10;51.50
71237;DHT22;58984;51.960;5.582;2022-08-03T11:44:49;31.20;51.60
71237;DHT22;58984;51.960;5.582;2022-08-03T11:47:15;31.40;51.40
71237;DHT22;58984;51.960;5.582;2022-08-03T11:49:45;31.40;51.40
71237;DHT22;58984;51.960;5.582;2022-08-03T11:52:10;31.40;51.10
71237;DHT22;58984;51.960;5.582;2022-08-03T11:54:37;31.50;51.10
71237;DHT22;58984;51.960;5.582;2022-08-03T11:57:03;31.50;51.10
71237;DHT22;58984;51.960;5.582;2022-08-03T11:59:36;31.50;51.00
71237;DHT22;58984;51.960;5.582;2022-08-03T12:02:09;31.50;50.90
71237;DHT22;58984;51.960;5.582;2022-08-03T12:07:23;31.60;50.90
71237;DHT22;58984;51.960;5.582;2022-08-03T12:10:13;31.70;50.60
71237;DHT22;58984;51.960;5.582;2022-08-03T12:12:40;31.60;50.80
71237;DHT22;58984;51.960;5.582;2022-08-03T12:15:07;31.80;50.50
71237;DHT22;58984;51.960;5.582;2022-08-03T12:19:59;31.90;50.40
71237;DHT22;58984;51.960;5.582;2022-08-03T12:22:32;31.90;50.40
71237;DHT22;58984;51.960;5.582;2022-08-03T12:24:58;31.80;50.20
71237;DHT22;58984;51.960;5.582;2022-08-03T12:27:25;32.00;50.10
71237;DHT22;58984;51.960;5.582;2022-08-03T12:29:55;32.00;50.10
71237;DHT22;58984;51.960;5.582;2022-08-03T12:32:21;32.00;50.10
71237;DHT22;58984;51.960;5.582;2022-08-03T12:34:48;32.10;50.00
71237;DHT22;58984;51.960;5.582;2022-08-03T12:37:18;32.10;50.00
71237;DHT22;58984;51.960;5.582;2022-08-03T12:39:49;32.10;50.00
71237;DHT22;58984;51.960;5.582;2022-08-03T12:42:15;32.10;50.00
71237;DHT22;58984;51.960;5.582;2022-08-03T12:44:41;32.20;49.80
71237;DHT22;58984;51.960;5.582;2022-08-03T12:47:06;32.20;49.80
71237;DHT22;58984;51.960;5.582;2022-08-03T12:49:51;32.30;49.80
71237;DHT22;58984;51.960;5.582;2022-08-03T12:52:19;32.20;49.80
71237;DHT22;58984;51.960;5.582;2022-08-03T12:54:55;32.30;49.60
71237;DHT22;58984;51.960;5.582;2022-08-03T12:57:21;32.20;49.60
71237;DHT22;58984;51.960;5.582;2022-08-03T12:59:46;32.30;49.50
71237;DHT22;58984;51.960;5.582;2022-08-03T13:02:25;32.40;49.60
71237;DHT22;58984;51.960;5.582;2022-08-03T13:04:53;32.30;49.50
71237;DHT22;58984;51.960;5.582;2022-08-03T13:07:19;32.40;50.10
71237;DHT22;58984;51.960;5.582;2022-08-03T13:09:50;32.50;49.50
71237;DHT22;58984;51.960;5.582;2022-08-03T13:12:19;32.50;49.40
71237;DHT22;58984;51.960;5.582;2022-08-03T13:14:49;32.50;49.10
71237;DHT22;58984;51.960;5.582;2022-08-03T13:17:16;32.50;49.30
71237;DHT22;58984;51.960;5.582;2022-08-03T13:19:42;32.60;49.20
71237;DHT22;58984;51.960;5.582;2022-08-03T13:22:19;32.60;49.80
71237;DHT22;58984;51.960;5.582;2022-08-03T13:24:46;32.50;49.20
71237;DHT22;58984;51.960;5.582;2022-08-03T13:27:13;32.60;49.10
71237;DHT22;58984;51.960;5.582;2022-08-03T13:29:39;32.60;49.00
71237;DHT22;58984;51.960;5.582;2022-08-03T13:32:06;32.60;49.00
71237;DHT22;58984;51.960;5.582;2022-08-03T13:34:32;32.60;49.00
71237;DHT22;58984;51.960;5.582;2022-08-03T13:36:57;32.60;48.90
71237;DHT22;58984;51.960;5.582;2022-08-03T13:39:23;32.60;48.70
71237;DHT22;58984;51.960;5.582;2022-08-03T13:41:49;32.70;48.90
71237;DHT22;58984;51.960;5.582;2022-08-03T13:44:14;32.70;48.80
71237;DHT22;58984;51.960;5.582;2022-08-03T13:46:40;32.70;48.80
71237;DHT22;58984;51.960;5.582;2022-08-03T13:49:06;32.70;48.80
71237;DHT22;58984;51.960;5.582;2022-08-03T13:51:32;32.70;48.80
71237;DHT22;58984;51.960;5.582;2022-08-03T13:53:58;32.70;48.90
71237;DHT22;58984;51.960;5.582;2022-08-03T13:56:28;32.70;48.90
71237;DHT22;58984;51.960;5.582;2022-08-03T13:58:54;32.70;49.00
71237;DHT22;58984;51.960;5.582;2022-08-03T14:01:20;32.70;48.80
71237;DHT22;58984;51.960;5.582;2022-08-03T14:03:46;32.80;48.90
71237;DHT22;58984;51.960;5.582;2022-08-03T14:06:19;32.70;48.60
71237;DHT22;58984;51.960;5.582;2022-08-03T14:08:44;32.80;48.90
71237;DHT22;58984;51.960;5.582;2022-08-03T14:11:10;32.80;48.70
71237;DHT22;58984;51.960;5.582;2022-08-03T14:13:36;32.80;48.70
71237;DHT22;58984;51.960;5.582;2022-08-03T14:16:02;32.80;48.90
71237;DHT22;58984;51.960;5.582;2022-08-03T14:18:28;32.80;48.70
71237;DHT22;58984;51.960;5.582;2022-08-03T14:20:54;32.80;48.90
71237;DHT22;58984;51.960;5.582;2022-08-03T14:23:19;32.80;48.70
71237;DHT22;58984;51.960;5.582;2022-08-03T14:25:45;32.80;48.70
71237;DHT22;58984;51.960;5.582;2022-08-03T14:28:10;32.80;48.60
71237;DHT22;58984;51.960;5.582;2022-08-03T14:30:36;32.80;48.80
71237;DHT22;58984;51.960;5.582;2022-08-03T14:33:02;32.80;48.80
71237;DHT22;58984;51.960;5.582;2022-08-03T14:35:27;32.80;48.70
71237;DHT22;58984;51.960;5.582;2022-08-03T14:37:53;32.80;48.90
71237;DHT22;58984;51.960;5.582;2022-08-03T14:40:19;32.80;48.80
71237;DHT22;58984;51.960;5.582;2022-08-03T14:42:45;32.80;48.70
71237;DHT22;58984;51.960;5.582;2022-08-03T14:45:10;32.80;48.60
71237;DHT22;58984;51.960;5.582;2022-08-03T14:47:37;32.80;48.70
71237;DHT22;58984;51.960;5.582;2022-08-03T14:50:03;32.80;48.70
71237;DHT22;58984;51.960;5.582;2022-08-03T14:52:30;32.80;48.80
71237;DHT22;58984;51.960;5.582;2022-08-03T14:54:56;32.70;48.60
71237;DHT22;58984;51.960;5.582;2022-08-03T14:57:22;32.70;48.60
71237;DHT22;58984;51.960;5.582;2022-08-03T14:59:47;32.70;48.50
71237;DHT22;58984;51.960;5.582;2022-08-03T15:02:13;32.70;48.50
71237;DHT22;58984;51.960;5.582;2022-08-03T15:04:39;32.70;48.60
71237;DHT22;58984;51.960;5.582;2022-08-03T15:07:04;32.70;48.40
71237;DHT22;58984;51.960;5.582;2022-08-03T15:09:31;32.70;48.60
71237;DHT22;58984;51.960;5.582;2022-08-03T15:11:56;32.70;48.50
71237;DHT22;58984;51.960;5.582;2022-08-03T15:14:22;32.70;48.60
71237;DHT22;58984;51.960;5.582;2022-08-03T15:16:48;32.70;48.60
71237;DHT22;58984;51.960;5.582;2022-08-03T15:19:13;32.70;48.70
71237;DHT22;58984;51.960;5.582;2022-08-03T15:21:39;32.70;48.70
71237;DHT22;58984;51.960;5.582;2022-08-03T15:24:04;32.70;48.60
71237;DHT22;58984;51.960;5.582;2022-08-03T15:26:30;32.70;48.50
71237;DHT22;58984;51.960;5.582;2022-08-03T15:28:56;32.70;48.60
71237;DHT22;58984;51.960;5.582;2022-08-03T15:31:22;32.70;48.60
71237;DHT22;58984;51.960;5.582;2022-08-03T15:33:48;32.70;48.70
71237;DHT22;58984;51.960;5.582;2022-08-03T15:36:16;32.70;48.80
71237;DHT22;58984;51.960;5.582;2022-08-03T15:38:42;32.60;48.60
71237;DHT22;58984;51.960;5.582;2022-08-03T15:41:08;32.70;48.70
71237;DHT22;58984;51.960;5.582;2022-08-03T15:43:33;32.70;48.70
71237;DHT22;58984;51.960;5.582;2022-08-03T15:45:59;32.60;48.60
71237;DHT22;58984;51.960;5.582;2022-08-03T15:48:24;32.60;49.40
71237;DHT22;58984;51.960;5.582;2022-08-03T15:50:50;32.60;48.70
71237;DHT22;58984;51.960;5.582;2022-08-03T15:53:16;32.60;48.60
71237;DHT22;58984;51.960;5.582;2022-08-03T15:55:42;32.60;48.70
71237;DHT22;58984;51.960;5.582;2022-08-03T15:58:08;32.60;48.70
71237;DHT22;58984;51.960;5.582;2022-08-03T16:00:34;32.60;48.60
71237;DHT22;58984;51.960;5.582;2022-08-03T16:03:00;32.60;48.70
71237;DHT22;58984;51.960;5.582;2022-08-03T16:05:25;32.60;48.60
71237;DHT22;58984;51.960;5.582;2022-08-03T16:07:51;32.60;48.60
71237;DHT22;58984;51.960;5.582;2022-08-03T16:10:18;32.60;48.70
71237;DHT22;58984;51.960;5.582;2022-08-03T16:12:44;32.60;48.60